createdAt,value
2022-10-15T00:01:40.223Z,12.90
2022-10-15T00:04:07.305Z,12.90
2022-10-15T00:06:34.502Z,12.90
2022-10-15T00:09:01.857Z,12.90
2022-10-15T00:11:29.707Z,12.90
2022-10-15T00:13:59.448Z,12.90
2022-10-15T00:16:28.701Z,12.90
2022-10-15T00:18:57.991Z,12.90
2022-10-15T00:21:25.959Z,12.90
2022-10-15T00:23:52.981Z,12.90
2022-10-15T00:26:25.808Z,12.90
2022-10-15T00:28:55.138Z,12.90
2022-10-15T00:31:24.730Z,13.00
2022-10-15T00:33:52.663Z,13.00
2022-10-15T00:36:26.850Z,12.90
2022-10-15T00:38:54.427Z,13.00
2022-10-15T00:41:41.093Z,13.00
2022-10-15T00:44:29.280Z,13.00
2022-10-15T00:47:17.718Z,13.00
2022-10-15T00:50:11.786Z,13.00
2022-10-15T00:53:08.143Z,13.00
2022-10-15T00:55:41.135Z,13.00
2022-10-15T00:58:28.334Z,13.10
2022-10-15T01:00:56.387Z,13.10
2022-10-15T01:03:24.353Z,13.10
2022-10-15T01:05:53.052Z,13.10
2022-10-15T01:08:20.313Z,13.10
2022-10-15T01:11:25.674Z,13.10
2022-10-15T01:13:55.401Z,13.10
2022-10-15T01:16:42.169Z,13.10
2022-10-15T01:19:28.164Z,13.10
2022-10-15T01:22:11.221Z,13.10
2022-10-15T01:25:03.043Z,13.20
2022-10-15T01:27:35.195Z,13.10
2022-10-15T01:30:20.348Z,13.10
2022-10-15T01:32:54.831Z,13.10
2022-10-15T01:35:33.668Z,13.20
2022-10-15T01:38:17.800Z,13.20
2022-10-15T01:40:55.658Z,13.20
2022-10-15T01:43:45.126Z,13.20
2022-10-15T01:46:45.387Z,13.20
2022-10-15T01:49:21.556Z,13.20
2022-10-15T01:51:50.970Z,13.20
2022-10-15T01:54:20.523Z,13.20
2022-10-15T01:56:50.174Z,13.20
2022-10-15T01:59:24.118Z,13.20
2022-10-15T02:01:51.308Z,13.20
2022-10-15T02:04:23.492Z,13.20
2022-10-15T02:07:05.084Z,13.20
2022-10-15T02:09:39.587Z,13.20
2022-10-15T02:12:24.835Z,13.20
2022-10-15T02:15:18.454Z,13.20
2022-10-15T02:17:51.333Z,13.30
2022-10-15T02:20:25.090Z,13.30
2022-10-15T02:23:08.103Z,13.30
2022-10-15T02:25:39.763Z,13.30
2022-10-15T02:28:08.149Z,13.30
2022-10-15T02:30:38.539Z,13.30
2022-10-15T02:33:05.584Z,13.30
2022-10-15T02:35:33.724Z,13.30
2022-10-15T02:38:05.839Z,13.30
2022-10-15T02:40:36.167Z,13.30
2022-10-15T02:43:09.536Z,13.30
2022-10-15T02:45:37.510Z,13.30
2022-10-15T02:48:05.382Z,13.40
2022-10-15T02:50:32.539Z,13.40
2022-10-15T02:52:59.801Z,13.40
2022-10-15T02:55:26.959Z,13.40
2022-10-15T02:57:53.994Z,13.40
2022-10-15T03:00:21.794Z,13.40
2022-10-15T03:02:49.595Z,13.50
2022-10-15T03:05:18.517Z,13.50
2022-10-15T03:07:45.574Z,13.50
2022-10-15T03:10:12.622Z,13.40
2022-10-15T03:12:40.095Z,13.50
2022-10-15T03:15:07.946Z,13.50
2022-10-15T03:17:36.005Z,13.50
2022-10-15T03:20:03.160Z,13.50
2022-10-15T03:22:32.271Z,13.50
2022-10-15T03:24:59.831Z,13.50
2022-10-15T03:27:28.258Z,13.50
2022-10-15T03:29:55.406Z,13.50
2022-10-15T03:32:24.679Z,13.50
2022-10-15T03:34:52.232Z,13.60
2022-10-15T03:37:20.451Z,13.60
2022-10-15T03:44:13.396Z,13.60
2022-10-15T03:46:45.482Z,13.60
2022-10-15T03:49:12.887Z,13.60
2022-10-15T03:51:40.532Z,13.70
2022-10-15T03:54:11.506Z,13.70
2022-10-15T03:56:46.394Z,13.70
2022-10-15T03:59:23.384Z,13.70
2022-10-15T04:01:57.347Z,13.70
2022-10-15T04:04:24.412Z,13.80
2022-10-15T04:06:51.716Z,13.80
2022-10-15T04:09:20.336Z,13.80
2022-10-15T04:11:47.342Z,13.80
2022-10-15T04:14:14.802Z,13.80
2022-10-15T04:16:42.830Z,13.80
2022-10-15T04:19:16.081Z,13.90
2022-10-15T04:21:46.351Z,13.90
2022-10-15T04:24:26.852Z,13.90
2022-10-15T04:26:53.852Z,13.90
2022-10-15T04:29:20.852Z,13.90
2022-10-15T04:31:48.621Z,13.90
2022-10-15T04:34:15.602Z,13.90
2022-10-15T04:36:43.158Z,13.90
2022-10-15T04:39:15.930Z,14.00
2022-10-15T04:41:44.493Z,14.00
2022-10-15T04:44:21.986Z,14.00
2022-10-15T04:46:54.333Z,14.00
2022-10-15T04:49:33.924Z,14.00
2022-10-15T04:52:03.630Z,14.00
2022-10-15T04:54:37.272Z,14.00
2022-10-15T04:57:06.193Z,14.10
2022-10-15T04:59:33.638Z,14.10
2022-10-15T05:02:19.367Z,14.10
2022-10-15T05:04:51.613Z,14.00
2022-10-15T05:07:18.578Z,14.00
2022-10-15T05:09:47.320Z,14.00
2022-10-15T05:12:14.635Z,14.00
2022-10-15T05:14:42.164Z,14.10
2022-10-15T05:17:15.966Z,14.10
2022-10-15T05:19:44.115Z,14.10
2022-10-15T05:22:17.606Z,14.10
2022-10-15T05:24:51.435Z,14.10
2022-10-15T05:27:32.611Z,14.10
2022-10-15T05:30:00.734Z,14.10
2022-10-15T05:32:35.972Z,14.10
2022-10-15T05:35:04.065Z,14.10
2022-10-15T05:37:48.707Z,14.10
2022-10-15T05:40:19.615Z,14.10
2022-10-15T05:43:01.444Z,14.10
2022-10-15T05:45:28.480Z,14.10
2022-10-15T05:47:58.559Z,14.10
2022-10-15T05:50:25.651Z,14.10
2022-10-15T05:52:55.853Z,14.10
2022-10-15T05:55:37.704Z,14.10
2022-10-15T05:58:05.250Z,14.10
2022-10-15T06:00:32.799Z,14.10
2022-10-15T06:02:59.879Z,14.10
2022-10-15T06:05:26.973Z,14.10
2022-10-15T06:07:53.966Z,14.10
2022-10-15T06:10:20.943Z,14.10
2022-10-15T06:12:51.534Z,14.10
2022-10-15T06:15:19.607Z,14.10
2022-10-15T06:17:46.591Z,14.10
2022-10-15T06:20:13.947Z,14.10
2022-10-15T06:22:40.921Z,14.10
2022-10-15T06:25:08.570Z,14.10
2022-10-15T06:27:35.622Z,14.10
2022-10-15T06:30:02.830Z,14.20
2022-10-15T06:32:29.928Z,14.20
2022-10-15T06:34:57.037Z,14.20
2022-10-15T06:37:24.489Z,14.20
2022-10-15T06:39:56.073Z,14.20
2022-10-15T06:42:23.167Z,14.20
2022-10-15T06:44:53.336Z,14.20
2022-10-15T06:47:20.334Z,14.20
2022-10-15T06:49:47.600Z,14.20
2022-10-15T06:52:14.606Z,14.20
2022-10-15T06:54:41.583Z,14.20
2022-10-15T06:57:10.954Z,14.20
2022-10-15T06:59:42.200Z,14.20
2022-10-15T07:02:14.285Z,14.20
2022-10-15T07:04:41.287Z,14.20
2022-10-15T07:07:08.299Z,14.20
2022-10-15T07:10:39.655Z,14.30
2022-10-15T07:13:06.610Z,14.30
2022-10-15T07:15:34.111Z,14.30
2022-10-15T07:18:04.121Z,14.30
2022-10-15T07:20:31.601Z,14.30
2022-10-15T07:23:02.798Z,14.30
2022-10-15T07:25:31.426Z,14.30
2022-10-15T07:27:58.614Z,14.30
2022-10-15T07:30:28.816Z,14.30
2022-10-15T07:32:57.198Z,14.30
2022-10-15T07:35:25.107Z,14.40
2022-10-15T07:37:52.103Z,14.40
2022-10-15T07:40:20.068Z,14.40
2022-10-15T07:42:54.342Z,14.50
2022-10-15T07:45:22.710Z,14.50
2022-10-15T07:47:49.866Z,14.50
2022-10-15T07:50:17.187Z,14.50
2022-10-15T07:52:44.998Z,14.50
2022-10-15T07:55:12.263Z,14.60
2022-10-15T07:57:39.715Z,14.60
2022-10-15T08:00:07.491Z,14.60
2022-10-15T08:02:39.309Z,14.70
2022-10-15T08:05:10.475Z,14.70
2022-10-15T08:07:39.385Z,14.70
2022-10-15T08:10:12.042Z,14.80
2022-10-15T08:12:39.424Z,14.90
2022-10-15T08:15:08.885Z,14.90
2022-10-15T08:17:35.874Z,14.90
2022-10-15T08:20:03.513Z,14.90
2022-10-15T08:22:30.479Z,15.00
2022-10-15T08:24:58.097Z,15.00
2022-10-15T08:27:25.152Z,15.00
2022-10-15T08:29:57.317Z,15.10
2022-10-15T08:32:24.780Z,15.10
2022-10-15T08:34:52.255Z,15.10
2022-10-15T08:37:19.220Z,15.10
2022-10-15T08:39:46.932Z,15.20
2022-10-15T08:42:19.169Z,15.20
2022-10-15T08:44:53.680Z,15.10
2022-10-15T08:47:30.145Z,15.10
2022-10-15T08:50:00.190Z,15.20
2022-10-15T08:52:43.630Z,15.10
2022-10-15T08:55:13.326Z,15.20
2022-10-15T08:57:49.863Z,15.30
2022-10-15T09:00:25.263Z,15.30
2022-10-15T09:03:16.896Z,15.30
2022-10-15T09:06:04.081Z,15.30
2022-10-15T09:08:49.643Z,15.30
2022-10-15T09:11:24.902Z,15.30
2022-10-15T09:13:52.652Z,15.30
2022-10-15T09:16:28.763Z,15.30
2022-10-15T09:18:58.577Z,15.30
2022-10-15T09:21:28.455Z,15.30
2022-10-15T09:23:57.140Z,15.40
2022-10-15T09:26:43.747Z,15.40
2022-10-15T09:29:46.568Z,15.50
2022-10-15T09:32:27.426Z,15.60
2022-10-15T09:35:03.405Z,15.70
2022-10-15T09:37:46.786Z,15.80
2022-10-15T09:44:40.046Z,15.80
2022-10-15T09:48:04.132Z,15.80
2022-10-15T09:51:03.448Z,15.80
2022-10-15T09:57:55.197Z,15.70
2022-10-15T10:00:23.649Z,15.70
2022-10-15T10:03:14.353Z,15.60
2022-10-15T10:05:42.042Z,15.60
2022-10-15T10:08:25.960Z,15.50
2022-10-15T10:11:02.236Z,15.50
2022-10-15T10:13:39.567Z,15.50
2022-10-15T10:16:10.030Z,15.50
2022-10-15T10:19:15.591Z,15.50
2022-10-15T10:21:43.592Z,15.40
2022-10-15T10:24:31.990Z,15.40
2022-10-15T10:27:00.973Z,15.40
2022-10-15T10:29:34.117Z,15.40
2022-10-15T10:32:12.313Z,15.40
2022-10-15T10:34:42.967Z,15.40
2022-10-15T10:37:11.547Z,15.40
2022-10-15T10:39:38.708Z,15.40
2022-10-15T10:42:08.539Z,15.40
2022-10-15T10:44:37.089Z,15.40
2022-10-15T10:47:17.268Z,15.40
2022-10-15T10:49:47.222Z,15.30
2022-10-15T10:52:25.315Z,15.20
2022-10-15T10:55:04.710Z,15.20
2022-10-15T10:57:56.568Z,15.20
2022-10-15T11:00:35.248Z,15.20
2022-10-15T11:03:02.371Z,15.20
2022-10-15T11:05:32.896Z,15.20
2022-10-15T11:08:11.664Z,15.20
2022-10-15T11:10:56.469Z,15.20
2022-10-15T11:13:45.219Z,15.30
2022-10-15T11:16:35.074Z,15.30
2022-10-15T11:22:41.881Z,15.30
2022-10-15T11:25:17.989Z,15.40
2022-10-15T11:28:11.966Z,15.40
2022-10-15T11:31:07.722Z,15.40
2022-10-15T11:33:40.403Z,15.50
2022-10-15T11:36:25.994Z,15.60
2022-10-15T11:39:11.727Z,15.70
2022-10-15T11:42:16.931Z,15.80
2022-10-15T11:44:59.677Z,15.80
2022-10-15T11:47:50.898Z,15.90
2022-10-15T11:50:55.800Z,16.00
2022-10-15T11:53:41.113Z,16.10
2022-10-15T11:56:36.403Z,16.10
2022-10-15T12:03:37.507Z,16.20
2022-10-15T12:06:14.124Z,16.30
2022-10-15T12:13:16.275Z,16.60
2022-10-15T12:15:50.966Z,16.70
2022-10-15T12:18:46.184Z,16.90
2022-10-15T12:21:40.331Z,17.00
2022-10-15T12:24:44.742Z,17.10
2022-10-15T12:27:20.851Z,17.10
2022-10-15T12:30:00.148Z,17.10
2022-10-15T12:32:29.798Z,17.00
2022-10-15T12:35:06.301Z,17.00
2022-10-15T12:37:36.181Z,16.90
2022-10-15T12:40:07.111Z,16.80
2022-10-15T12:46:54.520Z,16.80
2022-10-15T12:49:27.830Z,17.10
2022-10-15T12:51:56.500Z,17.30
2022-10-15T12:54:36.794Z,17.40
2022-10-15T12:57:34.594Z,17.40
2022-10-15T13:00:02.925Z,17.30
2022-10-15T13:02:34.865Z,17.20
2022-10-15T13:06:12.768Z,17.20
2022-10-15T13:08:45.346Z,17.20
2022-10-15T13:11:49.366Z,17.20
2022-10-15T13:14:22.244Z,17.10
2022-10-15T13:16:50.599Z,17.00
2022-10-15T13:19:23.926Z,17.00
2022-10-15T13:21:54.895Z,17.00
2022-10-15T13:24:24.014Z,17.00
2022-10-15T13:26:51.696Z,17.00
2022-10-15T13:29:24.860Z,17.00
2022-10-15T13:31:54.715Z,17.00
2022-10-15T13:34:29.915Z,17.00
2022-10-15T13:36:59.348Z,17.10
2022-10-15T13:42:21.993Z,17.20
2022-10-15T13:44:58.138Z,17.20
2022-10-15T13:47:29.646Z,17.20
2022-10-15T13:50:31.672Z,17.20
2022-10-15T13:53:26.639Z,17.10
2022-10-15T13:55:56.936Z,17.00
2022-10-15T13:58:34.962Z,16.90
2022-10-15T14:01:05.183Z,16.80
2022-10-15T14:03:33.934Z,16.80
2022-10-15T14:06:10.205Z,16.70
2022-10-15T14:08:37.488Z,16.60
2022-10-15T14:11:04.544Z,16.60
2022-10-15T14:13:31.502Z,16.60
2022-10-15T14:16:15.430Z,16.60
2022-10-15T14:18:49.626Z,16.60
2022-10-15T14:21:20.634Z,16.60
2022-10-15T14:23:48.702Z,16.50
2022-10-15T14:26:17.002Z,16.50
2022-10-15T14:28:51.046Z,16.50
2022-10-15T14:31:33.575Z,16.50
2022-10-15T14:34:00.614Z,16.40
2022-10-15T14:36:31.094Z,16.40
2022-10-15T14:39:28.502Z,16.30
2022-10-15T14:42:00.854Z,16.20
2022-10-15T14:44:41.756Z,16.20
2022-10-15T14:47:26.801Z,16.10
2022-10-15T14:50:00.632Z,16.10
2022-10-15T14:52:30.515Z,16.00
2022-10-15T14:55:03.525Z,16.00
2022-10-15T14:57:36.403Z,15.90
2022-10-15T15:00:15.917Z,15.80
2022-10-15T15:02:43.006Z,15.80
2022-10-15T15:05:13.103Z,15.70
2022-10-15T15:07:40.598Z,15.70
2022-10-15T15:10:09.450Z,15.60
2022-10-15T15:12:39.079Z,15.50
2022-10-15T15:15:17.887Z,15.50
2022-10-15T15:17:45.182Z,15.40
2022-10-15T15:20:13.166Z,15.40
2022-10-15T15:22:41.950Z,15.40
2022-10-15T15:25:28.382Z,15.30
2022-10-15T15:27:55.426Z,15.30
2022-10-15T15:30:25.573Z,15.30
2022-10-15T15:32:52.655Z,15.20
2022-10-15T15:35:35.610Z,15.10
2022-10-15T15:38:02.922Z,15.20
2022-10-15T15:40:31.376Z,15.20
2022-10-15T15:42:58.334Z,15.10
2022-10-15T15:45:27.220Z,15.10
2022-10-15T15:47:56.378Z,15.00
2022-10-15T15:50:24.320Z,15.00
2022-10-15T15:52:51.263Z,14.90
2022-10-15T15:55:18.329Z,14.90
2022-10-15T15:57:46.501Z,14.90
2022-10-15T16:00:14.267Z,14.90
2022-10-15T16:02:41.534Z,14.90
2022-10-15T16:05:10.987Z,14.80
2022-10-15T16:07:37.956Z,14.80
2022-10-15T16:10:08.863Z,14.80
2022-10-15T16:12:35.927Z,14.80
2022-10-15T16:15:02.922Z,14.80
2022-10-15T16:17:29.874Z,14.80
2022-10-15T16:19:56.879Z,14.80
2022-10-15T16:22:23.927Z,14.80
2022-10-15T16:24:50.995Z,14.80
2022-10-15T16:27:17.929Z,14.70
2022-10-15T16:29:44.918Z,14.70
2022-10-15T16:32:11.994Z,14.70
2022-10-15T16:34:39.087Z,14.70
2022-10-15T16:37:06.075Z,14.70
2022-10-15T16:39:33.127Z,14.70
2022-10-15T16:42:00.347Z,14.70
2022-10-15T16:44:27.293Z,14.60
2022-10-15T16:46:54.233Z,14.60
2022-10-15T16:49:21.275Z,14.60
2022-10-15T16:51:48.211Z,14.60
2022-10-15T16:54:15.778Z,14.60
2022-10-15T16:56:43.120Z,14.60
2022-10-15T16:59:10.675Z,14.60
2022-10-15T17:01:37.851Z,14.60
2022-10-15T17:04:05.068Z,14.60
2022-10-15T17:06:32.099Z,14.60
2022-10-15T17:09:00.860Z,14.60
2022-10-15T17:11:37.876Z,14.60
2022-10-15T17:14:11.566Z,14.60
2022-10-15T17:16:39.852Z,14.50
2022-10-15T17:19:07.926Z,14.50
2022-10-15T17:21:36.052Z,14.50
2022-10-15T17:24:06.341Z,14.50
2022-10-15T17:26:36.454Z,14.50
2022-10-15T17:29:05.307Z,14.50
2022-10-15T17:31:32.926Z,14.40
2022-10-15T17:34:03.858Z,14.40
2022-10-15T17:36:32.829Z,14.40
2022-10-15T17:39:00.487Z,14.40
2022-10-15T17:41:29.695Z,14.40
2022-10-15T17:43:57.911Z,14.40
2022-10-15T17:46:27.863Z,14.40
2022-10-15T17:48:55.632Z,14.40
2022-10-15T17:51:25.682Z,14.50
2022-10-15T17:53:57.426Z,14.40
2022-10-15T17:56:26.324Z,14.40
2022-10-15T17:58:57.175Z,14.40
2022-10-15T18:01:56.721Z,14.40
2022-10-15T18:04:17.763Z,14.40
2022-10-15T18:06:45.101Z,14.40
2022-10-15T18:09:24.247Z,14.30
2022-10-15T18:11:51.496Z,14.30
2022-10-15T18:14:18.632Z,14.30
2022-10-15T18:16:45.930Z,14.30
2022-10-15T18:19:13.406Z,14.20
2022-10-15T18:21:40.422Z,14.20
2022-10-15T18:24:07.412Z,14.20
2022-10-15T18:26:34.413Z,14.20
2022-10-15T18:29:01.641Z,14.20
2022-10-15T18:31:28.714Z,14.20
2022-10-15T18:33:56.279Z,14.20
2022-10-15T18:36:26.031Z,14.20
2022-10-15T18:38:53.537Z,14.20
2022-10-15T18:41:22.948Z,14.20
2022-10-15T18:44:15.990Z,14.30
2022-10-15T18:46:45.151Z,14.30
2022-10-15T18:49:13.717Z,14.30
2022-10-15T18:51:40.695Z,14.40
2022-10-15T18:54:08.819Z,14.40
2022-10-15T18:56:35.964Z,14.40
2022-10-15T18:59:03.054Z,14.30
2022-10-15T19:01:39.007Z,14.30
2022-10-15T19:04:10.026Z,14.30
2022-10-15T19:06:39.774Z,14.30
2022-10-15T19:09:09.569Z,14.30
2022-10-15T19:11:36.644Z,14.30
2022-10-15T19:14:04.548Z,14.50
2022-10-15T19:16:31.759Z,14.30
2022-10-15T19:19:13.054Z,14.30
2022-10-15T19:21:40.055Z,14.30
2022-10-15T19:24:07.056Z,14.30
2022-10-15T19:26:34.718Z,14.30
2022-10-15T19:29:02.509Z,14.30
2022-10-15T19:31:35.346Z,14.20
2022-10-15T19:34:02.625Z,14.20
2022-10-15T19:36:41.011Z,14.20
2022-10-15T19:39:17.882Z,14.20
2022-10-15T19:41:45.583Z,14.20
2022-10-15T19:44:16.871Z,14.10
2022-10-15T19:46:46.138Z,14.10
2022-10-15T19:49:14.515Z,14.10
2022-10-15T19:51:41.795Z,14.10
2022-10-15T19:54:09.054Z,14.20
2022-10-15T19:56:36.033Z,14.20
2022-10-15T19:59:05.278Z,14.20
2022-10-15T20:01:32.941Z,14.20
2022-10-15T20:04:04.879Z,14.20
2022-10-15T20:06:35.223Z,14.20
2022-10-15T20:09:02.345Z,14.20
2022-10-15T20:11:29.588Z,14.20
2022-10-15T20:13:57.976Z,14.20
2022-10-15T20:16:26.377Z,14.20
2022-10-15T20:18:56.721Z,14.20
2022-10-15T20:21:23.682Z,14.20
2022-10-15T20:23:50.654Z,14.20
2022-10-15T20:26:17.640Z,14.20
2022-10-15T20:28:46.773Z,14.20
2022-10-15T20:31:16.971Z,14.20
2022-10-15T20:33:45.049Z,14.20
2022-10-15T20:36:15.838Z,14.20
2022-10-15T20:38:44.427Z,14.20
2022-10-15T20:41:14.126Z,14.20
2022-10-15T20:43:41.583Z,14.20
2022-10-15T20:46:12.903Z,14.20
2022-10-15T20:48:44.185Z,14.20
2022-10-15T20:51:13.663Z,14.20
2022-10-15T20:53:41.043Z,14.20
2022-10-15T20:56:08.212Z,14.20
2022-10-15T20:58:35.479Z,14.20
2022-10-15T21:01:02.875Z,14.20
2022-10-15T21:03:30.951Z,14.20
2022-10-15T21:05:58.008Z,14.20
2022-10-15T21:08:25.209Z,14.20
2022-10-15T21:10:52.302Z,14.20
2022-10-15T21:13:19.489Z,14.20
2022-10-15T21:15:46.473Z,14.20
2022-10-15T21:18:13.531Z,14.20
2022-10-15T21:20:40.514Z,14.20
2022-10-15T21:23:07.574Z,14.20
2022-10-15T21:25:34.805Z,14.20
2022-10-15T21:28:01.911Z,14.20
2022-10-15T21:30:28.854Z,14.20
2022-10-15T21:32:55.794Z,14.20
2022-10-15T21:35:22.802Z,14.20
2022-10-15T21:37:51.402Z,14.30
2022-10-15T21:40:18.425Z,14.30
2022-10-15T21:47:37.438Z,14.20
2022-10-15T21:50:05.266Z,14.30
2022-10-15T21:52:32.489Z,14.30
2022-10-15T21:54:59.498Z,14.30
2022-10-15T21:57:26.840Z,14.40
2022-10-15T21:59:54.200Z,14.40
2022-10-15T22:02:21.192Z,14.40
2022-10-15T22:04:48.386Z,14.40
2022-10-15T22:07:15.375Z,14.40
2022-10-15T22:09:42.642Z,14.40
2022-10-15T22:12:09.643Z,14.50
2022-10-15T22:14:36.780Z,14.50
2022-10-15T22:17:03.867Z,14.50
2022-10-15T22:19:30.931Z,14.50
2022-10-15T22:21:57.908Z,14.50
2022-10-15T22:24:24.894Z,14.50
2022-10-15T22:26:52.865Z,14.50
2022-10-15T22:29:25.282Z,14.50
2022-10-15T22:31:53.297Z,14.50
2022-10-15T22:34:21.657Z,14.50
2022-10-15T22:36:48.701Z,14.50
2022-10-15T22:39:17.384Z,14.50
2022-10-15T22:46:03.269Z,14.40
2022-10-15T22:48:33.355Z,14.40
2022-10-15T22:51:01.316Z,14.30
2022-10-15T22:53:28.657Z,14.30
2022-10-15T22:56:00.056Z,14.30
2022-10-15T22:58:28.139Z,14.30
2022-10-15T23:00:55.189Z,14.30
2022-10-15T23:03:22.300Z,14.20
2022-10-15T23:05:55.789Z,14.20
2022-10-15T23:08:23.287Z,14.20
2022-10-15T23:10:50.255Z,14.20
2022-10-15T23:13:17.296Z,14.20
2022-10-15T23:15:44.260Z,14.20
2022-10-15T23:18:11.379Z,14.20
2022-10-15T23:20:38.574Z,14.20
2022-10-15T23:23:06.221Z,14.20
2022-10-15T23:25:39.490Z,14.20
2022-10-15T23:28:06.666Z,14.10
2022-10-15T23:30:33.714Z,14.10
2022-10-15T23:33:02.931Z,14.10
2022-10-15T23:35:29.927Z,14.10
2022-10-15T23:37:56.971Z,14.10
2022-10-15T23:40:23.976Z,14.10
2022-10-15T23:42:50.948Z,14.10
2022-10-15T23:45:17.953Z,14.10
2022-10-15T23:47:44.903Z,14.10
2022-10-15T23:50:11.973Z,14.10
2022-10-15T23:52:38.929Z,14.10
2022-10-15T23:55:06.143Z,14.10
2022-10-15T23:57:33.130Z,14.20
